Kezdőlap
METAR-TAF:

METAR-TAF

Repülőterek :

Matsumoto, Japán

földrajzi szélesség: 36-10N, földrajzi hosszúság: 137-56E, magasság: 668 m

Jelenlegi meteorológiai megfigyelések

A jelentés 44 perccel ezelõtt készült, 09:00 UTC
Észak-északnyugati szél 17 kt
Hőmérséklet 0°C
Páratartalom 64%
Légköri nyomás 1020 hPa
Látótávolság 10 km, vagy több
Kevés felhő 2500 lábon
Szórványos felhőzet 3500 lábon
Záporok a közelben,

METAR: RJAF 270900Z 34017KT 9999 VCSH FEW025 SCT035 M00/M06 Q1020

Idő: 18:44 (09:44 UTC)


TAF: hiányzik

Meteorológiai megfigyelések és előrejelzések több, mint 4000 repülőtéren (METAR és TAF jelentéseket).

A térképen piros és sárga pontok jelzik az elérhető meteorológiai állomásokat.

Mozgassa az egeret a pont fölött, hogy megjelenjen az állomás neve.

Azután kattintson az időjárási megfigyelések és előrejelzések megtekintéséhez.

A térkép megváltoztatása: kattintson a fekete keresztel jelölt zöld gombra ráközelítéshez, a vonallal jelölt zöld gombra távolításhoz, vagy a zöld nyilakra a szomszédos térképek eléréséhez.


METAR-TAF: